createdAt,value
2018-12-06T00:00:30.594Z,101021.58
2018-12-06T00:02:58.121Z,101021.31
2018-12-06T00:05:25.779Z,101019.17
2018-12-06T00:08:05.098Z,101014.57
2018-12-06T00:10:32.677Z,101009.45
2018-12-06T00:13:00.172Z,101007.83
2018-12-06T00:15:27.835Z,101001.92
2018-12-06T00:17:55.363Z,101002.73
2018-12-06T00:20:22.921Z,101005.69
2018-12-06T00:22:50.462Z,101003.27
2018-12-06T00:25:17.950Z,101001.09
2018-12-06T00:27:45.429Z,101005.12
2018-12-06T00:30:24.733Z,101004.89
2018-12-06T00:32:52.271Z,101001.36
2018-12-06T00:35:20.431Z,101005.69
2018-12-06T00:37:47.926Z,101001.38
2018-12-06T00:40:15.437Z,101000.84
2018-12-06T00:42:42.966Z,101003.25
2018-12-06T00:45:10.550Z,101001.63
2018-12-06T00:47:38.080Z,100998.39
2018-12-06T00:50:05.582Z,100996.25
2018-12-06T00:52:34.625Z,100995.42
2018-12-06T00:55:04.121Z,100997.30
2018-12-06T00:57:32.624Z,100995.17
2018-12-06T01:00:02.022Z,100993.54
2018-12-06T01:02:30.306Z,100993.27
2018-12-06T01:05:00.241Z,100991.92
2018-12-06T01:07:29.928Z,100994.06
2018-12-06T01:09:59.354Z,100988.44
2018-12-06T01:12:26.895Z,100982.21
2018-12-06T01:14:54.410Z,100971.73
2018-12-06T01:17:21.901Z,100977.89
2018-12-06T01:19:49.437Z,100971.98
2018-12-06T01:22:16.934Z,100970.91
2018-12-06T01:24:44.449Z,100970.93
2018-12-06T01:27:12.025Z,100969.82
2018-12-06T01:29:39.560Z,100970.38
2018-12-06T01:32:07.213Z,100967.67
2018-12-06T01:34:35.458Z,100966.32
2018-12-06T01:37:03.067Z,100967.94
2018-12-06T01:39:30.628Z,100958.78
2018-12-06T01:41:58.146Z,100962.55
2018-12-06T01:44:25.668Z,100956.34
2018-12-06T01:46:53.314Z,100955.53
2018-12-06T01:49:20.818Z,100962.78
2018-12-06T01:51:48.326Z,100954.16
2018-12-06T01:54:15.884Z,100953.62
2018-12-06T01:56:43.397Z,100961.41
2018-12-06T01:59:11.024Z,100961.66
2018-12-06T02:01:38.580Z,100960.58
2018-12-06T02:04:06.109Z,100963.00
2018-12-06T02:06:33.617Z,100959.75
2018-12-06T02:09:01.122Z,100958.10
2018-12-06T02:11:28.641Z,100959.98
2018-12-06T02:13:56.136Z,100961.59
2018-12-06T02:16:23.682Z,100960.78
2018-12-06T02:18:51.306Z,100957.28
2018-12-06T02:21:19.026Z,100954.88
2018-12-06T02:23:46.545Z,100959.39
2018-12-06T02:26:14.081Z,100955.34
2018-12-06T02:28:41.640Z,100952.92
2018-12-06T02:31:09.251Z,100947.80
2018-12-06T02:33:36.834Z,100952.66
2018-12-06T02:36:04.324Z,100949.15
2018-12-06T02:38:31.831Z,100954.52
2018-12-06T02:40:59.382Z,100954.23
2018-12-06T02:43:26.949Z,100958.28
2018-12-06T02:45:54.473Z,100950.98
2018-12-06T02:48:21.966Z,100944.80
2018-12-06T02:50:49.839Z,100936.14
2018-12-06T02:53:17.423Z,100939.38
2018-12-06T02:55:44.965Z,100931.81
2018-12-06T02:58:12.527Z,100936.66
2018-12-06T03:00:40.071Z,100926.95
2018-12-06T03:03:07.704Z,100921.55
2018-12-06T03:05:35.462Z,100918.57
2018-12-06T03:08:03.007Z,100920.98
2018-12-06T03:10:30.516Z,100923.10
2018-12-06T03:12:58.151Z,100923.38
2018-12-06T03:15:25.730Z,100930.95
2018-12-06T03:17:53.273Z,100937.66
2018-12-06T03:20:20.813Z,100938.73
2018-12-06T03:22:48.382Z,100924.41
2018-12-06T03:25:15.909Z,100918.73
2018-12-06T03:27:43.466Z,100916.86
2018-12-06T03:30:11.037Z,100921.17
2018-12-06T03:32:38.761Z,100912.53
2018-12-06T03:35:06.435Z,100900.11
2018-12-06T03:37:33.996Z,100902.53
2018-12-06T03:40:01.540Z,100911.95
2018-12-06T03:42:29.068Z,100900.08
2018-12-06T03:44:56.593Z,100893.05
2018-12-06T03:47:24.179Z,100893.86
2018-12-06T03:49:51.685Z,100898.69
2018-12-06T03:52:19.211Z,100898.14
2018-12-06T03:54:46.768Z,100914.59
2018-12-06T03:57:14.510Z,100918.05
2018-12-06T03:59:42.022Z,100924.54
2018-12-06T04:02:09.522Z,100926.95
2018-12-06T04:04:37.031Z,100919.36
2018-12-06T04:07:04.565Z,100910.45
2018-12-06T04:09:32.148Z,100916.64
2018-12-06T04:11:59.644Z,100913.62
2018-12-06T04:14:27.207Z,100920.08
2018-12-06T04:16:54.721Z,100923.88
2018-12-06T04:19:22.237Z,100927.63
2018-12-06T04:21:49.935Z,100931.13
2018-12-06T04:24:17.493Z,100927.34
2018-12-06T04:26:45.094Z,100923.00
2018-12-06T04:29:12.659Z,100927.31
2018-12-06T04:31:40.302Z,100932.72
2018-12-06T04:34:07.785Z,100939.73
2018-12-06T04:36:35.281Z,100941.08
2018-12-06T04:39:04.826Z,100941.28
2018-12-06T04:41:32.542Z,100946.95
2018-12-06T04:44:00.056Z,100945.60
2018-12-06T04:46:27.555Z,100944.25
2018-12-06T04:48:55.414Z,100935.87
2018-12-06T04:51:22.942Z,100942.32
2018-12-06T04:53:50.430Z,100940.97
2018-12-06T04:56:17.934Z,100943.94
2018-12-06T04:58:45.490Z,100949.34
2018-12-06T05:01:13.118Z,100953.62
2018-12-06T05:03:40.677Z,100955.53
2018-12-06T05:06:08.227Z,100952.84
2018-12-06T05:08:35.738Z,100934.45
2018-12-06T05:11:03.225Z,100929.88
2018-12-06T05:13:30.832Z,100926.33
2018-12-06T05:15:58.314Z,100929.82
2018-12-06T05:18:25.801Z,100929.00
2018-12-06T05:20:53.308Z,100922.52
2018-12-06T05:23:20.821Z,100925.22
2018-12-06T05:25:48.425Z,100919.53
2018-12-06T05:28:15.998Z,100911.41
2018-12-06T05:30:43.555Z,100908.42
2018-12-06T05:33:11.080Z,100912.47
2018-12-06T05:35:38.606Z,100911.38
2018-12-06T05:38:06.092Z,100914.61
2018-12-06T05:40:33.631Z,100913.79
2018-12-06T05:43:01.129Z,100907.05
2018-12-06T05:45:28.659Z,100903.78
2018-12-06T05:47:56.225Z,100898.13
2018-12-06T05:50:23.777Z,100901.33
2018-12-06T05:52:51.323Z,100904.56
2018-12-06T05:55:18.839Z,100907.76
2018-12-06T05:57:48.183Z,100906.94
2018-12-06T06:00:16.029Z,100906.38
2018-12-06T06:02:43.531Z,100901.22
2018-12-06T06:05:11.018Z,100900.11
2018-12-06T06:07:38.594Z,100908.73
2018-12-06T06:10:06.098Z,100926.81
2018-12-06T06:12:33.616Z,100928.66
2018-12-06T06:15:01.165Z,100929.19
2018-12-06T06:17:28.724Z,100938.84
2018-12-06T06:19:56.217Z,100945.02
2018-12-06T06:22:24.112Z,100949.04
2018-12-06T06:24:51.604Z,100954.64
2018-12-06T06:27:19.102Z,100958.16
2018-12-06T06:29:46.774Z,100967.30
2018-12-06T06:32:14.287Z,100972.09
2018-12-06T06:34:41.776Z,100977.75
2018-12-06T06:37:09.362Z,100970.44
2018-12-06T06:39:36.879Z,100974.99
2018-12-06T06:42:04.409Z,100984.16
2018-12-06T06:44:31.943Z,100984.19
2018-12-06T06:46:59.446Z,100987.64
2018-12-06T06:49:27.034Z,100984.66
2018-12-06T06:51:54.548Z,100992.23
2018-12-06T06:54:22.068Z,100991.38
2018-12-06T06:56:49.641Z,100998.39
2018-12-06T06:59:17.125Z,100996.45
2018-12-06T07:01:44.715Z,100996.19
2018-12-06T07:04:12.248Z,101006.14
2018-12-06T07:06:39.758Z,101002.63
2018-12-06T07:09:08.262Z,101004.47
2018-12-06T07:11:36.251Z,101003.91
2018-12-06T07:14:04.229Z,101015.78
2018-12-06T07:16:31.766Z,101014.14
2018-12-06T07:18:59.322Z,101012.75
2018-12-06T07:21:26.938Z,101014.38
2018-12-06T07:23:54.458Z,101017.30
2018-12-06T07:26:21.963Z,101037.55
2018-12-06T07:28:49.476Z,101051.36
2018-12-06T07:31:16.998Z,101053.23
2018-12-06T07:33:44.645Z,101059.14
2018-12-06T07:36:12.128Z,101051.80
2018-12-06T07:38:39.636Z,101063.41
2018-12-06T07:41:07.158Z,101062.31
2018-12-06T07:43:34.677Z,101056.61
2018-12-06T07:46:08.575Z,101056.28
2018-12-06T07:48:36.202Z,101064.07
2018-12-06T07:51:03.772Z,101060.81
2018-12-06T07:53:31.384Z,101057.28
2018-12-06T07:55:58.908Z,101046.44
2018-12-06T07:58:26.463Z,101043.11
2018-12-06T08:00:54.034Z,101039.84
2018-12-06T08:03:21.527Z,101038.22
2018-12-06T08:05:49.213Z,101037.89
2018-12-06T08:08:16.746Z,101034.33
2018-12-06T08:10:44.256Z,101024.86
2018-12-06T08:13:11.768Z,101020.48
2018-12-06T08:15:39.395Z,101022.62
2018-12-06T08:18:07.134Z,101031.48
2018-12-06T08:20:34.680Z,101030.10
2018-12-06T08:23:02.177Z,101036.56
2018-12-06T08:25:29.742Z,101041.91
2018-12-06T08:27:57.262Z,101038.64
2018-12-06T08:30:24.788Z,101043.75
2018-12-06T08:32:52.313Z,101046.98
2018-12-06T08:35:19.892Z,101042.13
2018-12-06T08:37:47.395Z,101046.16
2018-12-06T08:40:14.922Z,101048.83
2018-12-06T08:42:45.718Z,101056.12
2018-12-06T08:45:12.043Z,101064.20
2018-12-06T08:47:39.852Z,101050.63
2018-12-06T08:50:07.346Z,101043.31
2018-12-06T08:52:34.965Z,101056.02
2018-12-06T08:55:02.456Z,101059.20
2018-12-06T08:57:29.956Z,101060.33
2018-12-06T08:59:57.634Z,101065.70
2018-12-06T09:02:30.973Z,101065.14
2018-12-06T09:04:58.617Z,101065.67
2018-12-06T09:07:26.335Z,101066.47
2018-12-06T09:09:53.836Z,101064.55
2018-12-06T09:12:21.336Z,101061.84
2018-12-06T09:14:48.832Z,101057.45
2018-12-06T09:17:16.369Z,101056.05
2018-12-06T09:19:43.853Z,101056.31
2018-12-06T09:22:11.354Z,101054.36
2018-12-06T09:24:38.967Z,101041.88
2018-12-06T09:27:06.473Z,101040.45
2018-12-06T09:29:33.961Z,101031.23
2018-12-06T09:32:01.494Z,101031.19
2018-12-06T09:34:28.981Z,101029.84
2018-12-06T09:36:56.480Z,101034.42
2018-12-06T09:39:23.991Z,101038.92
2018-12-06T09:41:51.495Z,101035.12
2018-12-06T09:44:19.077Z,101034.52
2018-12-06T09:46:46.593Z,101050.20
2018-12-06T09:49:14.131Z,101047.72
2018-12-06T09:51:41.651Z,101053.05
2018-12-06T09:54:09.158Z,101057.64
2018-12-06T09:56:36.674Z,101058.69
2018-12-06T09:59:04.220Z,101058.08
2018-12-06T10:01:31.817Z,101056.42
2018-12-06T10:03:59.303Z,101067.78
2018-12-06T10:06:26.793Z,101074.86
2018-12-06T10:08:54.307Z,101083.47
2018-12-06T10:11:21.880Z,101090.98
2018-12-06T10:13:49.557Z,101089.59
2018-12-06T10:16:17.048Z,101076.88
2018-12-06T10:18:44.542Z,101076.05
2018-12-06T10:21:12.056Z,101080.11
2018-12-06T10:23:39.641Z,101081.16
2018-12-06T10:26:07.737Z,101092.18
2018-12-06T10:28:35.283Z,101090.78
2018-12-06T10:31:02.828Z,101088.89
2018-12-06T10:33:30.326Z,101077.76
2018-12-06T10:35:57.971Z,101079.06
2018-12-06T10:38:25.569Z,101073.91
2018-12-06T10:40:53.560Z,101072.73
2018-12-06T10:43:21.105Z,101071.64
2018-12-06T10:45:48.668Z,101078.38
2018-12-06T10:48:16.257Z,101076.71
2018-12-06T10:50:43.781Z,101067.44
2018-12-06T10:53:11.274Z,101068.75
2018-12-06T10:55:38.817Z,101065.73
2018-12-06T10:58:06.323Z,101073.87
2018-12-06T11:00:39.502Z,101083.05
2018-12-06T11:03:13.876Z,101089.42
2018-12-06T11:05:41.427Z,101094.84
2018-12-06T11:08:08.912Z,101088.33
2018-12-06T11:10:36.427Z,101087.77
2018-12-06T11:13:03.933Z,101082.82
2018-12-06T11:15:31.480Z,101080.36
2018-12-06T11:17:59.027Z,101088.73
2018-12-06T11:20:26.573Z,101087.58
2018-12-06T11:22:54.065Z,101089.20
2018-12-06T11:25:51.342Z,101088.33
2018-12-06T11:28:18.897Z,101089.59
2018-12-06T11:30:46.448Z,101099.03
2018-12-06T11:33:13.957Z,101099.23
2018-12-06T11:35:41.578Z,101079.95
2018-12-06T11:38:09.118Z,101080.69
2018-12-06T11:40:36.651Z,101069.27
2018-12-06T11:43:04.230Z,101084.13
2018-12-06T11:45:31.759Z,101078.93
2018-12-06T11:47:59.247Z,101067.72
2018-12-06T11:50:26.810Z,101069.08
2018-12-06T11:52:54.336Z,101068.75
2018-12-06T11:55:21.892Z,101059.17
2018-12-06T11:57:49.576Z,101061.35
2018-12-06T12:00:17.097Z,101064.80
2018-12-06T12:02:44.618Z,101074.25
2018-12-06T12:05:12.137Z,101074.20
2018-12-06T12:07:39.628Z,101081.49
2018-12-06T12:10:07.177Z,101072.00
2018-12-06T12:12:34.674Z,101070.87
2018-12-06T12:15:02.169Z,101070.02
2018-12-06T12:17:29.673Z,101068.05
2018-12-06T12:19:57.328Z,101078.06
2018-12-06T12:22:24.816Z,101079.26
2018-12-06T12:24:52.423Z,101094.18
2018-12-06T12:27:19.982Z,101096.64
2018-12-06T12:29:47.489Z,101096.38
2018-12-06T12:32:15.039Z,101102.91
2018-12-06T12:34:42.522Z,101094.23
2018-12-06T12:37:10.055Z,101093.10
2018-12-06T12:39:37.773Z,101086.88
2018-12-06T12:42:05.295Z,101090.39
2018-12-06T12:44:32.902Z,101093.36
2018-12-06T12:47:00.384Z,101094.18
2018-12-06T12:49:28.009Z,101087.14
2018-12-06T12:51:55.499Z,101100.66
2018-12-06T12:54:23.381Z,101096.84
2018-12-06T12:56:50.886Z,101091.67
2018-12-06T12:59:18.429Z,101087.02
2018-12-06T13:01:45.992Z,101084.52
2018-12-06T13:04:13.477Z,101079.30
2018-12-06T13:06:40.991Z,101073.39
2018-12-06T13:09:08.505Z,101075.28
2018-12-06T13:11:35.993Z,101071.72
2018-12-06T13:14:03.500Z,101068.75
2018-12-06T13:16:30.994Z,101062.70
2018-12-06T13:18:58.534Z,101061.91
2018-12-06T13:21:26.014Z,101063.27
2018-12-06T13:23:53.557Z,101062.75
2018-12-06T13:26:21.077Z,101064.98
2018-12-06T13:28:48.573Z,101070.95
2018-12-06T13:31:16.161Z,101064.16
2018-12-06T13:33:44.081Z,101067.50
2018-12-06T13:36:11.565Z,101066.71
2018-12-06T13:38:39.191Z,101075.90
2018-12-06T13:41:06.686Z,101074.59
2018-12-06T13:43:34.173Z,101067.75
2018-12-06T13:46:01.900Z,101073.77
2018-12-06T13:48:29.587Z,101071.06
2018-12-06T13:50:57.102Z,101067.32
2018-12-06T13:53:24.614Z,101070.55
2018-12-06T13:55:52.148Z,101075.41
2018-12-06T13:58:20.045Z,101072.16
2018-12-06T14:00:47.722Z,101071.00
2018-12-06T14:03:15.380Z,101066.45
2018-12-06T14:05:42.888Z,101065.89
2018-12-06T14:08:10.398Z,101075.13
2018-12-06T14:10:37.901Z,101075.97
2018-12-06T14:13:05.499Z,101084.96
2018-12-06T14:15:32.997Z,101087.14
2018-12-06T14:18:00.485Z,101087.09
2018-12-06T14:20:28.170Z,101079.20
2018-12-06T14:22:55.655Z,101073.50
2018-12-06T14:25:23.230Z,101071.34
2018-12-06T14:27:50.760Z,101065.69
2018-12-06T14:30:18.406Z,101075.72
2018-12-06T14:32:45.934Z,101076.34
2018-12-06T14:35:13.423Z,101075.34
2018-12-06T14:37:40.972Z,101075.60
2018-12-06T14:40:08.455Z,101070.77
2018-12-06T14:42:35.992Z,101067.73
2018-12-06T14:45:04.347Z,101080.77
2018-12-06T14:47:31.871Z,101081.92
2018-12-06T14:49:59.356Z,101081.49
2018-12-06T14:52:26.920Z,101081.77
2018-12-06T14:54:54.424Z,101068.52
2018-12-06T14:57:21.935Z,101065.49
2018-12-06T14:59:49.425Z,101073.41
2018-12-06T15:02:16.943Z,101069.56
2018-12-06T15:04:44.454Z,101071.74
2018-12-06T15:07:11.976Z,101073.58
2018-12-06T15:09:39.536Z,101081.49
2018-12-06T15:12:07.071Z,101084.00
2018-12-06T15:14:34.922Z,101078.63
2018-12-06T15:17:02.411Z,101077.53
2018-12-06T15:19:30.033Z,101078.58
2018-12-06T15:21:57.533Z,101071.28
2018-12-06T15:24:25.016Z,101059.64
2018-12-06T15:26:52.618Z,101062.09
2018-12-06T15:29:20.117Z,101057.23
2018-12-06T15:31:47.601Z,101054.01
2018-12-06T15:34:15.225Z,101055.92
2018-12-06T15:36:42.712Z,101051.03
2018-12-06T15:39:10.201Z,101049.68
2018-12-06T15:41:37.815Z,101045.12
2018-12-06T15:44:05.346Z,101042.67
2018-12-06T15:46:32.865Z,101047.33
2018-12-06T15:49:00.437Z,101040.59
2018-12-06T15:51:27.971Z,101041.11
2018-12-06T15:53:55.498Z,101033.72
2018-12-06T15:56:23.043Z,101044.34
2018-12-06T15:58:50.537Z,101049.30
2018-12-06T16:01:18.106Z,101042.04
2018-12-06T16:03:45.596Z,101039.81
2018-12-06T16:06:13.128Z,101033.81
2018-12-06T16:08:40.789Z,101033.08
2018-12-06T16:11:08.293Z,101039.07
2018-12-06T16:13:35.785Z,101039.38
2018-12-06T16:16:03.296Z,101046.69
2018-12-06T16:18:30.797Z,101039.96
2018-12-06T16:20:58.289Z,101045.64
2018-12-06T16:23:25.919Z,101042.14
2018-12-06T16:25:53.477Z,101047.79
2018-12-06T16:28:21.022Z,101042.67
2018-12-06T16:30:48.601Z,101039.43
2018-12-06T16:33:16.106Z,101034.00
2018-12-06T16:35:43.639Z,101032.09
2018-12-06T16:38:11.251Z,101029.69
2018-12-06T16:40:38.801Z,101026.09
2018-12-06T16:43:06.345Z,101010.13
2018-12-06T16:45:33.877Z,101009.08
2018-12-06T16:48:01.470Z,101012.11
2018-12-06T16:50:29.020Z,101012.05
2018-12-06T16:52:56.558Z,101015.55
2018-12-06T16:55:24.097Z,101017.27
2018-12-06T16:57:51.634Z,101022.70
2018-12-06T17:00:19.186Z,101023.00
2018-12-06T17:02:46.746Z,101033.28
2018-12-06T17:05:14.241Z,101032.23
2018-12-06T17:07:41.770Z,101031.09
2018-12-06T17:10:09.417Z,101030.34
2018-12-06T17:12:36.899Z,101028.69
2018-12-06T17:15:04.592Z,101032.14
2018-12-06T17:17:32.082Z,101031.34
2018-12-06T17:19:59.568Z,101031.83
2018-12-06T17:22:27.080Z,101022.33
2018-12-06T17:24:54.569Z,101023.16
2018-12-06T17:27:22.143Z,101019.57
2018-12-06T17:29:49.678Z,101022.18
2018-12-06T17:32:17.164Z,101019.47
2018-12-06T17:34:44.678Z,101018.91
2018-12-06T17:37:12.159Z,101017.31
2018-12-06T17:39:39.787Z,101009.92
2018-12-06T17:42:07.331Z,101002.57
2018-12-06T17:44:35.159Z,101003.39
2018-12-06T17:47:02.690Z,101002.20
2018-12-06T17:49:30.187Z,101004.64
2018-12-06T17:51:57.676Z,100999.70
2018-12-06T17:54:25.247Z,100995.94
2018-12-06T17:56:52.732Z,100996.98
2018-12-06T17:59:20.272Z,101002.41
2018-12-06T18:01:47.825Z,101002.09
2018-12-06T18:04:15.351Z,101000.75
2018-12-06T18:06:42.848Z,101006.69
2018-12-06T18:09:10.355Z,101007.16
2018-12-06T18:11:38.131Z,101012.11
2018-12-06T18:14:05.636Z,101013.09
2018-12-06T18:16:33.122Z,100998.69
2018-12-06T18:19:00.663Z,100995.41
2018-12-06T18:21:28.220Z,101005.75
2018-12-06T18:23:55.764Z,101008.47
2018-12-06T18:26:23.248Z,100999.79
2018-12-06T18:28:50.837Z,100997.87
2018-12-06T18:31:18.324Z,100995.41
2018-12-06T18:33:45.811Z,100989.19
2018-12-06T18:36:13.374Z,100990.83
2018-12-06T18:38:40.921Z,100985.34
2018-12-06T18:41:08.435Z,100975.00
2018-12-06T18:43:35.926Z,100976.89
2018-12-06T18:46:03.513Z,100968.22
2018-12-06T18:48:31.053Z,100957.00
2018-12-06T18:50:58.673Z,100968.16
2018-12-06T18:53:26.194Z,100965.70
2018-12-06T18:55:53.735Z,100971.08
2018-12-06T18:58:21.280Z,100971.49
2018-12-06T19:00:48.774Z,100970.13
2018-12-06T19:03:16.259Z,100957.73
2018-12-06T19:05:43.765Z,100966.13
2018-12-06T19:08:11.311Z,100963.66
2018-12-06T19:10:38.841Z,100956.31
2018-12-06T19:13:06.342Z,100954.42
2018-12-06T19:15:33.859Z,100958.49
2018-12-06T19:18:01.382Z,100958.43
2018-12-06T19:20:28.962Z,100952.41
2018-12-06T19:22:56.494Z,100959.67
2018-12-06T19:25:23.996Z,100952.88
2018-12-06T19:27:51.507Z,100943.16
2018-12-06T19:30:18.989Z,100939.09
2018-12-06T19:32:46.674Z,100938.27
2018-12-06T19:35:14.207Z,100935.75
2018-12-06T19:37:42.480Z,100940.61
2018-12-06T19:40:10.107Z,100940.08
2018-12-06T19:42:38.975Z,100937.05
2018-12-06T19:45:06.740Z,100939.45
2018-12-06T19:47:34.294Z,100939.70
2018-12-06T19:50:01.837Z,100939.95
2018-12-06T19:52:29.381Z,100950.75
2018-12-06T19:54:56.929Z,100949.81
2018-12-06T19:57:24.421Z,100957.58
2018-12-06T19:59:51.920Z,100951.52
2018-12-06T20:02:19.428Z,100943.16
2018-12-06T20:04:46.909Z,100941.42
2018-12-06T20:07:14.425Z,100931.59
2018-12-06T20:09:41.920Z,100931.03
2018-12-06T20:12:09.497Z,100936.14
2018-12-06T20:14:37.021Z,100936.08
2018-12-06T20:17:04.538Z,100939.05
2018-12-06T20:19:32.152Z,100927.66
2018-12-06T20:21:59.652Z,100921.72
2018-12-06T20:24:27.336Z,100920.42
2018-12-06T20:26:54.825Z,100914.36
2018-12-06T20:29:22.360Z,100913.83
2018-12-06T20:31:50.015Z,100923.27
2018-12-06T20:34:17.500Z,100922.44
2018-12-06T20:36:45.035Z,100919.79
2018-12-06T20:39:12.552Z,100917.89
2018-12-06T20:41:40.156Z,100913.50
2018-12-06T20:44:07.651Z,100907.19
2018-12-06T20:46:35.330Z,100896.96
2018-12-06T20:49:02.832Z,100896.64
2018-12-06T20:51:30.359Z,100898.57
2018-12-06T20:53:57.876Z,100894.97
2018-12-06T20:56:25.377Z,100893.70
2018-12-06T20:58:52.901Z,100893.93
2018-12-06T21:01:20.402Z,100896.17
2018-12-06T21:03:48.030Z,100896.17
2018-12-06T21:06:15.529Z,100891.21
2018-12-06T21:08:43.017Z,100887.45
2018-12-06T21:11:10.568Z,100888.88
2018-12-06T21:13:38.081Z,100889.70
2018-12-06T21:16:05.602Z,100889.52
2018-12-06T21:18:33.098Z,100887.27
2018-12-06T21:21:00.716Z,100886.30
2018-12-06T21:23:28.263Z,100882.47
2018-12-06T21:25:55.784Z,100884.72
2018-12-06T21:28:23.505Z,100887.78
2018-12-06T21:30:51.306Z,100872.06
2018-12-06T21:33:18.797Z,100874.45
2018-12-06T21:35:46.366Z,100883.42
2018-12-06T21:38:13.873Z,100885.57
2018-12-06T21:40:41.363Z,100888.92
2018-12-06T21:43:08.872Z,100883.55
2018-12-06T21:45:36.352Z,100884.41
2018-12-06T21:48:03.922Z,100880.65
2018-12-06T21:50:31.433Z,100877.46
2018-12-06T21:52:58.973Z,100877.21
2018-12-06T21:55:26.754Z,100864.17
2018-12-06T21:57:54.242Z,100868.24
2018-12-06T22:00:21.750Z,100873.67
2018-12-06T22:02:49.363Z,100870.17
2018-12-06T22:05:16.889Z,100862.03
2018-12-06T22:07:44.411Z,100864.30
2018-12-06T22:10:11.926Z,100867.64
2018-12-06T22:12:39.404Z,100870.36
2018-12-06T22:15:06.935Z,100869.06
2018-12-06T22:17:34.479Z,100862.84
2018-12-06T22:20:02.022Z,100862.03
2018-12-06T22:22:29.569Z,100870.73
2018-12-06T22:24:57.061Z,100868.34
2018-12-06T22:27:24.609Z,100864.55
2018-12-06T22:29:52.107Z,100855.59
2018-12-06T22:32:19.600Z,100857.77
2018-12-06T22:34:47.152Z,100860.80
2018-12-06T22:37:14.674Z,100864.93
2018-12-06T22:39:42.186Z,100870.30
2018-12-06T22:42:09.684Z,100866.70
2018-12-06T22:44:37.294Z,100863.57
2018-12-06T22:47:04.877Z,100860.80
2018-12-06T22:49:32.387Z,100858.14
2018-12-06T22:51:59.930Z,100861.96
2018-12-06T22:54:27.541Z,100865.05
2018-12-06T22:56:55.049Z,100870.52
2018-12-06T22:59:22.596Z,100866.51
2018-12-06T23:01:50.139Z,100867.08
2018-12-06T23:04:17.696Z,100864.05
2018-12-06T23:06:45.249Z,100858.37
2018-12-06T23:09:12.738Z,100857.77
2018-12-06T23:11:40.240Z,100858.02
2018-12-06T23:14:07.774Z,100854.80
2018-12-06T23:16:35.579Z,100854.86
2018-12-06T23:19:03.258Z,100860.80
2018-12-06T23:21:30.776Z,100852.40
2018-12-06T23:23:58.381Z,100847.45
2018-12-06T23:26:25.874Z,100846.47
2018-12-06T23:28:53.355Z,100857.52
2018-12-06T23:31:20.951Z,100858.08
2018-12-06T23:33:48.438Z,100851.05
2018-12-06T23:36:15.933Z,100853.25
2018-12-06T23:38:43.438Z,100845.37
2018-12-06T23:41:10.920Z,100850.48
2018-12-06T23:43:38.498Z,100838.02
2018-12-06T23:46:05.989Z,100845.62
2018-12-06T23:48:33.481Z,100836.97
2018-12-06T23:51:12.976Z,100832.05
2018-12-06T23:53:40.629Z,100830.95
2018-12-06T23:56:08.114Z,100832.52
2018-12-06T23:58:35.651Z,100820.09
